Linn Creek, MO (65052)

11:34 CDT le 28 août 2016 (GMT -0500)
Near Big Surf | | Change Station

Alt. 902 ft 38.07 °N, 92.69 °W | Updated 0 second ago

Clear
Ciel dégagé
88.9 ° F
Paraît 98 ° F
N
0.0
Vent Variable Vent de NO
Gusts 0.0 mph

Aujourd'hui
Haut(e) -- | Bas -- ° F
--% Risque de précip.
Hier
Haut(e) -- | Bas -- ° F
Precip. -- pouce
Pression 30.19 pouce
Visibilité 10.0 Miles terrestres
Nuages Ciel dégagé
indice de chaleur 98 ° F
Point de rosée 74 ° F
Humidité 61%
Précipitations 0.00 pouce
Profondeur de la couche neigeuse Non disponible.
6:37 AM 7:45 PM
Lune descendante, 14% visible
METAR KAIZ 281556Z AUTO 14004KT 10SM CLR 29/24 A3017 RMK AO2 SLP224 T02890239
Pression 30.19 pouce
Visibilité 10.0 Miles terrestres
Nuages Ciel dégagé
indice de chaleur 98 ° F
Point de rosée 74 ° F
Humidité 61%
Précipitations 0.00 pouce
Profondeur de la couche neigeuse Non disponible.
6:37 AM 7:45 PM
Lune descendante, 14% visible
METAR KAIZ 281556Z AUTO 14004KT 10SM CLR 29/24 A3017 RMK AO2 SLP224 T02890239

10-Day Weather Forecast

Almanac

Astronomie

Aug. 28, 2016 Lever Coucher
Temps réel
Crépuscule civil
Crépuscule nautique
Crépuscule astronomique
Lune
Durée de lumière visible
Longueur du jour
Tomorrow will be .
, % of the Moon is Illuminated

Extrêmes aujourd'hui

State Highs State Lows

Community

WunderPhotos

Upload Photos

1,935,621 Photos téléchargées !

WunderBlog® & News

Nearby

Qualité de l'air

  Qualité de l'air Indice de la qualité de l'air Polluant
Not available.

Épaisseur de neige

Station Depth Altitude

Activité sismique

Ville Distance Mag. Time & Date
Minimum magnitude displayed is 2.5.

Températures des eaux côtières

Lieu Température

Stations

Stations météo à proximité

Emplacement de la station Température Refroidissement éolien Point de rosée Humidité Vent Precip. Alt. Mise à jour Type
                   

Watches & Warnings

There are currently no watches in effect.